createdAt,value
2022-10-14T00:05:03.598Z,75.56
2022-10-14T00:20:04.678Z,77.66
2022-10-14T00:35:04.701Z,78.66
2022-10-14T00:50:04.824Z,80.76
2022-10-14T01:05:04.556Z,81.25
2022-10-14T01:20:05.388Z,81.60
2022-10-14T01:35:06.335Z,80.71
2022-10-14T01:50:08.278Z,81.61
2022-10-14T02:05:09.252Z,80.30
2022-10-14T02:20:10.650Z,79.61
2022-10-14T02:35:11.151Z,80.16
2022-10-14T02:50:12.267Z,79.24
2022-10-14T03:05:13.582Z,76.64
2022-10-14T03:20:14.957Z,75.57
2022-10-14T03:35:16.322Z,76.26
2022-10-14T03:50:17.189Z,76.61
2022-10-14T04:05:17.544Z,76.43
2022-10-14T04:20:17.650Z,75.78
2022-10-14T04:35:18.267Z,75.54
2022-10-14T04:50:18.441Z,75.50
2022-10-14T05:05:18.522Z,77.61
2022-10-14T05:20:18.643Z,77.60
2022-10-14T05:35:29.258Z,79.84
2022-10-14T05:50:23.872Z,82.28
2022-10-14T06:05:23.963Z,81.93
2022-10-14T06:20:24.091Z,81.09
2022-10-14T06:35:24.166Z,79.06
2022-10-14T06:50:24.317Z,78.41
2022-10-14T07:05:24.383Z,76.86
2022-10-14T07:20:24.577Z,75.38
2022-10-14T07:35:24.696Z,73.23
2022-10-14T07:50:24.827Z,70.73
2022-10-14T08:05:37.653Z,67.08
2022-10-14T08:20:30.706Z,64.65
2022-10-14T08:35:31.640Z,95.75
2022-10-14T08:50:31.311Z,99.99
2022-10-14T09:05:31.412Z,99.99
2022-10-14T09:20:32.791Z,99.99
2022-10-14T09:35:32.958Z,99.99
2022-10-14T09:50:34.374Z,99.99
2022-10-14T10:05:34.875Z,93.93
2022-10-14T10:20:35.860Z,88.23
2022-10-14T10:35:37.173Z,86.93
2022-10-14T10:50:38.610Z,87.51
2022-10-14T11:05:38.667Z,89.26
2022-10-14T11:20:38.868Z,88.03
2022-10-14T11:35:39.551Z,80.32
2022-10-14T11:50:41.926Z,76.70
2022-10-14T12:05:44.563Z,76.57
2022-10-14T12:20:44.693Z,80.71
2022-10-14T12:35:46.056Z,84.49
2022-10-14T12:50:47.968Z,86.30
2022-10-14T13:05:50.268Z,81.82
2022-10-14T13:20:50.424Z,77.65
2022-10-14T13:35:51.000Z,77.74
2022-10-14T13:50:51.212Z,78.03
2022-10-14T14:05:51.179Z,82.46
2022-10-14T14:20:51.395Z,84.95
2022-10-14T14:35:51.415Z,87.76
2022-10-14T14:50:52.041Z,90.22
2022-10-14T15:05:52.170Z,92.42
2022-10-14T15:20:52.747Z,93.32
2022-10-14T15:35:53.295Z,96.69
2022-10-14T15:50:53.411Z,99.99
2022-10-14T16:05:53.684Z,99.99
2022-10-14T16:20:53.694Z,99.99
2022-10-14T16:35:55.039Z,99.99
2022-10-14T16:50:55.665Z,99.06
2022-10-14T17:05:56.265Z,98.60
2022-10-14T17:20:56.834Z,95.34
2022-10-14T17:35:57.946Z,95.94
2022-10-14T17:50:57.537Z,95.23
2022-10-14T18:05:58.142Z,93.29
2022-10-14T18:20:58.263Z,95.18
2022-10-14T18:35:58.863Z,94.17
2022-10-14T18:51:00.716Z,95.03
2022-10-14T19:06:03.622Z,95.03
2022-10-14T19:21:04.949Z,94.66
2022-10-14T19:36:05.549Z,95.28
2022-10-14T19:51:07.267Z,94.82
2022-10-14T20:06:08.035Z,95.29
2022-10-14T20:21:08.903Z,96.00
2022-10-14T20:36:09.028Z,97.63
2022-10-14T20:51:09.118Z,98.70
2022-10-14T21:06:10.205Z,98.96
2022-10-14T21:21:11.643Z,99.06
2022-10-14T21:36:14.949Z,99.32
2022-10-14T21:51:15.551Z,99.32
2022-10-14T22:06:16.959Z,99.99
2022-10-14T22:21:18.898Z,99.17
2022-10-14T22:36:23.581Z,99.32
2022-10-14T22:51:24.527Z,99.93
2022-10-14T23:06:25.025Z,99.32
2022-10-14T23:21:24.654Z,98.91
2022-10-14T23:36:25.214Z,99.11
2022-10-14T23:51:24.824Z,97.60
